createdAt,value
2022-12-25T00:01:32.306Z,11.07
2022-12-25T00:03:59.620Z,11.98
2022-12-25T00:06:26.757Z,10.55
2022-12-25T00:08:53.953Z,10.55
2022-12-25T00:11:21.453Z,11.82
2022-12-25T00:13:49.294Z,9.82
2022-12-25T00:16:17.737Z,11.07
2022-12-25T00:18:45.422Z,10.20
2022-12-25T00:21:13.317Z,11.13
2022-12-25T00:23:40.614Z,11.10
2022-12-25T00:26:09.921Z,12.68
2022-12-25T00:28:36.975Z,12.55
2022-12-25T00:31:12.399Z,12.13
2022-12-25T00:33:41.435Z,12.00
2022-12-25T00:36:09.925Z,12.95
2022-12-25T00:38:39.060Z,11.82
2022-12-25T00:41:11.295Z,11.27
2022-12-25T00:43:44.377Z,10.13
2022-12-25T00:46:13.245Z,13.95
2022-12-25T00:48:40.726Z,13.32
2022-12-25T00:51:11.547Z,12.10
2022-12-25T00:53:38.723Z,15.00
2022-12-25T00:56:08.404Z,13.45
2022-12-25T00:58:36.286Z,13.45
2022-12-25T01:01:04.060Z,10.65
2022-12-25T01:03:31.458Z,14.25
2022-12-25T01:06:01.144Z,14.18
2022-12-25T01:08:30.669Z,14.10
2022-12-25T01:11:02.798Z,12.68
2022-12-25T01:13:30.966Z,11.15
2022-12-25T01:15:58.389Z,15.00
2022-12-25T01:18:25.650Z,13.07
2022-12-25T01:20:52.718Z,12.88
2022-12-25T01:23:19.783Z,14.27
2022-12-25T01:25:46.664Z,16.08
2022-12-25T01:28:13.881Z,14.00
2022-12-25T01:30:47.442Z,12.75
2022-12-25T01:33:14.599Z,14.48
2022-12-25T01:35:42.186Z,14.95
2022-12-25T01:38:09.083Z,12.68
2022-12-25T01:40:36.041Z,13.57
2022-12-25T01:43:03.052Z,12.43
2022-12-25T01:45:32.810Z,15.27
2022-12-25T01:48:02.717Z,16.13
2022-12-25T01:50:29.853Z,16.58
2022-12-25T01:52:58.294Z,18.10
2022-12-25T01:55:26.958Z,14.77
2022-12-25T01:57:54.205Z,15.63
2022-12-25T02:00:21.227Z,16.30
2022-12-25T02:02:49.175Z,16.63
2022-12-25T02:05:21.502Z,18.48
2022-12-25T02:07:48.728Z,15.35
2022-12-25T02:10:15.896Z,16.30
2022-12-25T02:12:45.200Z,19.65
2022-12-25T02:15:15.846Z,16.55
2022-12-25T02:18:04.383Z,15.85
2022-12-25T02:20:59.892Z,14.70
2022-12-25T02:23:42.618Z,17.02
2022-12-25T02:26:09.514Z,14.98
2022-12-25T02:28:46.048Z,15.90
2022-12-25T02:31:39.056Z,16.95
2022-12-25T02:34:06.184Z,16.65
2022-12-25T02:36:50.402Z,15.80
2022-12-25T02:39:58.128Z,17.90
2022-12-25T02:43:20.599Z,16.63
2022-12-25T02:46:16.718Z,17.90
2022-12-25T02:49:11.326Z,16.98
2022-12-25T02:52:01.991Z,19.95
2022-12-25T02:54:53.326Z,17.20
2022-12-25T02:57:44.802Z,18.48
2022-12-25T03:00:32.215Z,17.58
2022-12-25T03:03:21.317Z,15.85
2022-12-25T03:06:08.148Z,20.33
2022-12-25T03:08:43.090Z,18.23
2022-12-25T03:11:31.214Z,19.17
2022-12-25T03:26:57.201Z,19.10
2022-12-25T03:29:44.586Z,17.48
2022-12-25T03:32:39.068Z,18.02
2022-12-25T03:35:44.339Z,16.38
2022-12-25T03:38:32.840Z,18.70
2022-12-25T03:41:34.963Z,17.20
2022-12-25T03:44:38.472Z,17.13
2022-12-25T03:47:22.076Z,14.02
2022-12-25T03:50:21.785Z,14.80
2022-12-25T03:53:10.024Z,15.35
2022-12-25T03:55:56.884Z,17.90
2022-12-25T03:58:44.188Z,17.55
2022-12-25T04:01:29.992Z,15.90
2022-12-25T04:04:15.721Z,16.15
2022-12-25T04:07:01.499Z,16.33
2022-12-25T04:09:46.780Z,16.02
2022-12-25T04:12:32.359Z,19.50
2022-12-25T04:15:18.114Z,19.73
2022-12-25T04:18:03.413Z,17.65
2022-12-25T04:20:49.106Z,19.48
2022-12-25T04:23:34.642Z,16.40
2022-12-25T04:26:20.393Z,15.93
2022-12-25T04:29:06.188Z,16.77
2022-12-25T04:31:51.856Z,15.07
2022-12-25T04:34:37.039Z,13.77
2022-12-25T04:37:04.063Z,18.00
2022-12-25T04:39:31.341Z,16.50
2022-12-25T04:41:59.500Z,17.25
2022-12-25T04:44:26.800Z,16.83
2022-12-25T04:46:53.820Z,18.50
2022-12-25T04:49:20.965Z,17.40
2022-12-25T04:51:47.947Z,16.38
2022-12-25T04:54:14.969Z,34.97
2022-12-25T04:56:45.837Z,24.52
2022-12-25T04:59:13.213Z,18.88
2022-12-25T05:01:40.594Z,14.25
2022-12-25T05:04:07.796Z,17.42
2022-12-25T05:06:34.941Z,14.82
2022-12-25T05:09:01.994Z,15.77
2022-12-25T05:11:29.153Z,16.38
2022-12-25T05:13:57.703Z,15.93
2022-12-25T05:16:26.456Z,13.35
2022-12-25T05:18:53.363Z,16.45
2022-12-25T05:21:20.780Z,18.42
2022-12-25T05:23:51.747Z,17.08
2022-12-25T05:26:23.027Z,13.30
2022-12-25T05:28:50.535Z,16.08
2022-12-25T05:31:17.992Z,15.02
2022-12-25T05:33:44.969Z,14.02
2022-12-25T05:36:13.141Z,15.27
2022-12-25T05:38:40.286Z,16.38
2022-12-25T05:41:07.640Z,14.18
2022-12-25T05:43:34.508Z,17.17
2022-12-25T05:46:08.990Z,17.02
2022-12-25T05:48:37.549Z,17.17
2022-12-25T05:51:10.476Z,15.05
2022-12-25T05:53:40.655Z,16.80
2022-12-25T05:56:09.417Z,19.58
2022-12-25T05:58:39.264Z,20.08
2022-12-25T06:01:16.760Z,17.10
2022-12-25T06:03:43.991Z,14.30
2022-12-25T06:06:11.983Z,13.23
2022-12-25T06:08:39.223Z,14.38
2022-12-25T06:11:08.000Z,14.48
2022-12-25T06:13:36.243Z,14.45
2022-12-25T06:16:08.241Z,12.10
2022-12-25T06:18:43.404Z,12.50
2022-12-25T06:21:12.629Z,12.18
2022-12-25T06:23:40.351Z,13.95
2022-12-25T06:26:10.490Z,11.15
2022-12-25T06:28:37.718Z,7.75
2022-12-25T06:31:14.844Z,11.57
2022-12-25T06:33:42.386Z,14.10
2022-12-25T06:36:12.661Z,11.15
2022-12-25T06:38:39.904Z,12.77
2022-12-25T06:41:10.608Z,12.32
2022-12-25T06:43:38.351Z,11.70
2022-12-25T06:46:07.772Z,12.60
2022-12-25T06:48:35.413Z,12.02
2022-12-25T06:51:03.668Z,12.88
2022-12-25T06:53:38.810Z,13.43
2022-12-25T06:56:15.652Z,12.57
2022-12-25T06:58:56.569Z,11.30
2022-12-25T07:01:43.725Z,12.43
2022-12-25T07:04:38.081Z,11.43
2022-12-25T07:07:09.350Z,11.13
2022-12-25T07:09:39.214Z,10.18
2022-12-25T07:12:11.862Z,11.85
2022-12-25T07:14:38.910Z,18.33
2022-12-25T07:17:06.345Z,10.52
2022-12-25T07:19:33.317Z,10.85
2022-12-25T07:22:00.320Z,11.52
2022-12-25T07:24:27.344Z,9.98
2022-12-25T07:26:54.323Z,12.60
2022-12-25T07:29:21.294Z,13.55
2022-12-25T07:31:48.359Z,11.48
2022-12-25T07:34:17.511Z,11.98
2022-12-25T07:36:44.601Z,16.58
2022-12-25T07:39:11.837Z,12.43
2022-12-25T07:41:38.781Z,11.23
2022-12-25T07:44:15.274Z,10.60
2022-12-25T07:46:42.297Z,13.00
2022-12-25T07:49:10.805Z,14.07
2022-12-25T07:51:37.940Z,13.95
2022-12-25T07:54:05.401Z,12.75
2022-12-25T07:56:33.268Z,11.15
2022-12-25T07:59:00.186Z,11.40
2022-12-25T08:01:27.934Z,14.32
2022-12-25T08:03:57.252Z,11.73
2022-12-25T08:06:29.828Z,11.40
2022-12-25T08:09:04.623Z,11.10
2022-12-25T08:11:31.642Z,14.20
2022-12-25T08:13:58.670Z,12.65
2022-12-25T08:16:25.779Z,14.18
2022-12-25T08:18:53.870Z,12.82
2022-12-25T08:21:21.004Z,14.07
2022-12-25T08:23:48.445Z,12.38
2022-12-25T08:26:21.599Z,15.15
2022-12-25T08:28:49.421Z,12.93
2022-12-25T08:31:19.490Z,12.70
2022-12-25T08:33:47.616Z,15.63
2022-12-25T08:36:15.854Z,19.77
2022-12-25T08:38:43.084Z,17.35
2022-12-25T08:41:11.177Z,15.27
2022-12-25T08:43:38.235Z,20.95
2022-12-25T08:46:06.436Z,14.73
2022-12-25T08:48:34.787Z,24.35
2022-12-25T08:51:02.434Z,15.65
2022-12-25T08:53:29.370Z,16.17
2022-12-25T08:56:01.244Z,18.05
2022-12-25T08:58:28.747Z,18.75
2022-12-25T09:00:56.323Z,16.60
2022-12-25T09:03:24.657Z,14.60
2022-12-25T09:05:52.676Z,17.15
2022-12-25T09:08:22.016Z,13.13
2022-12-25T09:10:49.432Z,11.38
2022-12-25T09:13:16.906Z,15.10
2022-12-25T09:15:43.875Z,16.45
2022-12-25T09:18:11.828Z,14.48
2022-12-25T09:20:39.002Z,11.38
2022-12-25T09:23:11.607Z,11.18
2022-12-25T09:25:40.786Z,11.90
2022-12-25T09:28:07.772Z,9.88
2022-12-25T09:30:34.950Z,12.25
2022-12-25T09:33:01.973Z,11.70
2022-12-25T09:35:28.909Z,12.93
2022-12-25T09:37:55.969Z,13.15
2022-12-25T09:40:28.145Z,12.52
2022-12-25T09:42:56.258Z,11.88
2022-12-25T09:45:30.181Z,12.48
2022-12-25T09:47:57.426Z,13.93
2022-12-25T09:50:33.509Z,10.88
2022-12-25T09:53:14.996Z,10.32
2022-12-25T09:55:50.378Z,10.93
2022-12-25T09:58:17.366Z,10.23
2022-12-25T10:00:54.097Z,10.52
2022-12-25T10:03:26.907Z,12.20
2022-12-25T10:06:21.420Z,10.88
2022-12-25T10:11:43.456Z,9.43
2022-12-25T10:14:14.020Z,10.32
2022-12-25T10:17:19.336Z,10.88
2022-12-25T10:19:52.175Z,10.73
2022-12-25T10:22:50.108Z,9.60
2022-12-25T10:25:24.041Z,11.27
2022-12-25T10:30:25.339Z,9.98
2022-12-25T10:32:55.288Z,13.90
2022-12-25T10:35:24.720Z,12.90
2022-12-25T10:38:06.581Z,13.82
2022-12-25T10:40:52.170Z,14.95
2022-12-25T10:43:25.716Z,14.93
2022-12-25T10:45:52.645Z,12.80
2022-12-25T10:48:30.774Z,11.85
2022-12-25T10:50:57.925Z,7.90
2022-12-25T10:53:27.239Z,10.90
2022-12-25T10:56:06.044Z,6.88
2022-12-25T10:58:34.337Z,6.57
2022-12-25T11:01:07.174Z,6.00
2022-12-25T11:03:44.953Z,8.15
2022-12-25T11:06:28.892Z,8.52
2022-12-25T11:08:59.630Z,4.55
2022-12-25T11:11:28.225Z,4.90
2022-12-25T11:13:58.973Z,18.38
2022-12-25T11:16:27.576Z,8.20
2022-12-25T11:18:55.383Z,5.40
2022-12-25T11:21:27.322Z,5.43
2022-12-25T11:24:17.873Z,7.35
2022-12-25T11:26:59.196Z,8.73
2022-12-25T11:29:49.246Z,7.03
2022-12-25T11:32:43.625Z,7.63
2022-12-25T11:35:17.479Z,4.70
2022-12-25T11:40:29.271Z,6.05
2022-12-25T11:43:07.813Z,6.13
2022-12-25T11:45:41.860Z,7.20
2022-12-25T11:48:18.274Z,11.25
2022-12-25T11:51:11.651Z,7.97
2022-12-25T11:53:41.286Z,7.43
2022-12-25T11:56:11.881Z,6.45
2022-12-25T11:58:56.989Z,5.90
2022-12-25T12:01:55.281Z,5.97
2022-12-25T12:04:32.685Z,6.72
2022-12-25T12:07:13.725Z,4.80
2022-12-25T12:10:16.804Z,8.82
2022-12-25T12:13:11.575Z,10.55
2022-12-25T12:15:47.467Z,5.88
2022-12-25T12:18:23.256Z,7.93
2022-12-25T12:21:08.783Z,5.68
2022-12-25T12:23:56.523Z,5.43
2022-12-25T12:26:26.119Z,5.20
2022-12-25T12:28:57.021Z,6.03
2022-12-25T12:31:24.656Z,6.05
2022-12-25T12:33:59.933Z,6.65
2022-12-25T12:36:35.603Z,8.48
2022-12-25T12:39:05.315Z,6.93
2022-12-25T12:41:47.186Z,7.10
2022-12-25T12:44:16.187Z,5.85
2022-12-25T12:46:52.645Z,9.88
2022-12-25T12:49:29.604Z,5.60
2022-12-25T12:52:36.169Z,16.85
2022-12-25T12:55:09.495Z,4.90
2022-12-25T12:57:40.173Z,6.03
2022-12-25T13:00:10.048Z,4.03
2022-12-25T13:02:51.769Z,5.78
2022-12-25T13:05:18.662Z,3.90
2022-12-25T13:07:51.493Z,4.30
2022-12-25T13:10:27.363Z,5.13
2022-12-25T13:13:01.841Z,3.95
2022-12-25T13:15:32.805Z,4.03
2022-12-25T13:18:10.058Z,6.35
2022-12-25T13:20:40.191Z,8.75
2022-12-25T13:23:34.164Z,4.80
2022-12-25T13:26:06.481Z,4.43
2022-12-25T13:28:36.172Z,7.38
2022-12-25T13:31:21.804Z,9.18
2022-12-25T13:34:20.129Z,8.68
2022-12-25T13:36:47.129Z,4.22
2022-12-25T13:39:18.461Z,6.22
2022-12-25T13:42:09.607Z,8.07
2022-12-25T13:44:39.476Z,8.27
2022-12-25T13:47:18.790Z,8.43
2022-12-25T13:49:47.029Z,5.93
2022-12-25T13:52:16.997Z,7.55
2022-12-25T13:55:00.332Z,9.52
2022-12-25T13:57:37.288Z,7.75
2022-12-25T14:00:08.389Z,12.52
2022-12-25T14:02:39.541Z,9.07
2022-12-25T14:05:41.728Z,14.60
2022-12-25T14:08:22.920Z,9.82
2022-12-25T14:10:52.199Z,9.50
2022-12-25T14:13:22.840Z,8.02
2022-12-25T14:15:53.564Z,8.32
2022-12-25T14:18:23.309Z,10.55
2022-12-25T14:21:11.128Z,10.65
2022-12-25T14:23:43.770Z,9.40
2022-12-25T14:26:17.968Z,11.63
2022-12-25T14:29:23.641Z,10.25
2022-12-25T14:31:54.571Z,11.35
2022-12-25T14:34:24.397Z,11.30
2022-12-25T14:36:52.829Z,11.32
2022-12-25T14:39:38.017Z,10.10
2022-12-25T14:42:37.813Z,11.73
2022-12-25T14:45:32.290Z,21.08
2022-12-25T14:48:03.115Z,13.15
2022-12-25T14:50:37.454Z,13.85
2022-12-25T14:53:17.022Z,13.30
2022-12-25T14:55:48.348Z,13.77
2022-12-25T14:58:28.587Z,16.20
2022-12-25T15:00:57.451Z,13.68
2022-12-25T15:03:35.573Z,13.27
2022-12-25T15:06:20.844Z,14.07
2022-12-25T15:08:59.117Z,17.30
2022-12-25T15:11:26.563Z,14.55
2022-12-25T15:28:38.010Z,14.05
2022-12-25T15:31:17.824Z,17.38
2022-12-25T15:33:44.792Z,15.95
2022-12-25T15:36:11.694Z,14.38
2022-12-25T15:38:39.042Z,13.43
2022-12-25T15:41:37.681Z,13.80
2022-12-25T15:44:06.335Z,16.45
2022-12-25T15:46:34.685Z,12.93
2022-12-25T15:49:01.703Z,16.27
2022-12-25T15:51:28.665Z,13.80
2022-12-25T15:53:55.549Z,15.55
2022-12-25T15:56:23.932Z,15.75
2022-12-25T15:58:50.923Z,15.30
2022-12-25T16:01:19.755Z,15.40
2022-12-25T16:03:47.507Z,14.77
2022-12-25T16:06:18.747Z,14.90
2022-12-25T16:08:46.127Z,15.50
2022-12-25T16:11:12.993Z,14.25
2022-12-25T16:13:39.886Z,14.00
2022-12-25T16:16:07.210Z,12.52
2022-12-25T16:18:34.240Z,14.40
2022-12-25T16:21:01.279Z,17.02
2022-12-25T16:23:28.582Z,16.70
2022-12-25T16:25:55.358Z,16.10
2022-12-25T16:28:22.370Z,18.42
2022-12-25T16:30:49.377Z,14.45
2022-12-25T16:33:16.327Z,14.38
2022-12-25T16:35:44.165Z,15.13
2022-12-25T16:38:11.876Z,18.27
2022-12-25T16:40:38.899Z,20.52
2022-12-25T16:43:05.880Z,20.27
2022-12-25T16:45:37.938Z,15.38
2022-12-25T16:48:05.002Z,15.48
2022-12-25T16:50:31.909Z,15.15
2022-12-25T16:52:58.809Z,14.23
2022-12-25T16:55:30.016Z,14.57
2022-12-25T16:57:57.485Z,15.25
2022-12-25T17:00:24.409Z,18.92
2022-12-25T17:02:51.362Z,17.45
2022-12-25T17:05:18.654Z,17.23
2022-12-25T17:07:45.751Z,23.17
2022-12-25T17:10:13.277Z,17.42
2022-12-25T17:12:40.368Z,18.08
2022-12-25T17:15:08.184Z,18.38
2022-12-25T17:17:35.176Z,17.92
2022-12-25T17:20:01.996Z,16.85
2022-12-25T17:22:28.882Z,15.73
2022-12-25T17:24:55.741Z,20.23
2022-12-25T17:27:22.734Z,16.20
2022-12-25T17:29:49.914Z,17.30
2022-12-25T17:32:16.754Z,17.52
2022-12-25T17:34:43.706Z,15.73
2022-12-25T17:37:10.559Z,16.52
2022-12-25T17:39:40.167Z,25.17
2022-12-25T17:42:07.011Z,21.42
2022-12-25T17:44:36.528Z,23.85
2022-12-25T17:47:03.528Z,23.33
2022-12-25T17:49:30.456Z,27.00
2022-12-25T17:51:57.327Z,32.08
2022-12-25T17:54:24.208Z,26.63
2022-12-25T17:56:51.026Z,27.42
2022-12-25T17:59:23.231Z,27.95
2022-12-25T18:01:50.180Z,23.60
2022-12-25T18:04:17.134Z,23.55
2022-12-25T18:06:44.012Z,24.77
2022-12-25T18:09:12.187Z,18.90
2022-12-25T18:11:43.172Z,21.40
2022-12-25T18:14:13.585Z,24.92
2022-12-25T18:16:43.373Z,24.17
2022-12-25T18:19:11.763Z,25.73
2022-12-25T18:21:38.709Z,25.45
2022-12-25T18:24:06.619Z,26.05
2022-12-25T18:26:34.405Z,24.38
2022-12-25T18:29:01.619Z,23.38
2022-12-25T18:31:30.390Z,22.40
2022-12-25T18:33:58.318Z,21.33
2022-12-25T18:36:27.947Z,24.15
2022-12-25T18:38:56.359Z,29.02
2022-12-25T18:41:23.714Z,21.58
2022-12-25T18:43:54.195Z,22.70
2022-12-25T18:46:25.277Z,23.55
2022-12-25T18:48:53.941Z,26.63
2022-12-25T18:51:20.879Z,23.90
2022-12-25T18:53:47.865Z,23.20
2022-12-25T18:56:17.688Z,29.33
2022-12-25T18:58:46.438Z,25.80
2022-12-25T19:01:17.411Z,24.40
2022-12-25T19:03:45.331Z,21.05
2022-12-25T19:06:24.200Z,20.90
2022-12-25T19:08:51.370Z,22.95
2022-12-25T19:11:18.995Z,20.02
2022-12-25T19:13:46.213Z,19.60
2022-12-25T19:16:13.242Z,18.10
2022-12-25T19:18:40.478Z,16.38
2022-12-25T19:21:09.394Z,21.13
2022-12-25T19:23:38.140Z,19.60
2022-12-25T19:26:06.752Z,21.00
2022-12-25T19:28:34.313Z,17.83
2022-12-25T19:31:02.174Z,17.60
2022-12-25T19:33:31.634Z,22.20
2022-12-25T19:36:08.412Z,20.27
2022-12-25T19:38:35.678Z,17.17
2022-12-25T19:41:07.544Z,17.88
2022-12-25T19:43:37.212Z,19.75
2022-12-25T19:46:05.973Z,20.10
2022-12-25T19:48:33.671Z,20.15
2022-12-25T19:51:00.972Z,20.25
2022-12-25T19:53:29.788Z,21.25
2022-12-25T19:56:01.476Z,20.75
2022-12-25T19:58:29.789Z,19.98
2022-12-25T20:01:01.733Z,22.33
2022-12-25T20:03:28.973Z,21.35
2022-12-25T20:05:56.664Z,18.90
2022-12-25T20:08:24.285Z,21.98
2022-12-25T20:10:51.228Z,23.02
2022-12-25T20:13:18.779Z,23.40
2022-12-25T20:15:46.114Z,24.13
2022-12-25T20:18:13.444Z,21.77
2022-12-25T20:20:40.965Z,24.60
2022-12-25T20:23:08.096Z,28.25
2022-12-25T20:25:39.708Z,35.53
2022-12-25T20:28:06.771Z,32.72
2022-12-25T20:30:41.489Z,33.10
2022-12-25T20:33:08.786Z,34.97
2022-12-25T20:35:35.947Z,32.90
2022-12-25T20:38:03.305Z,33.33
2022-12-25T20:40:30.364Z,38.38
2022-12-25T20:42:57.233Z,38.58
2022-12-25T20:45:26.816Z,39.78
2022-12-25T20:47:53.958Z,38.08
2022-12-25T20:50:21.355Z,42.47
2022-12-25T20:52:48.349Z,36.08
2022-12-25T20:55:15.395Z,35.58
2022-12-25T20:57:42.431Z,33.70
2022-12-25T21:00:10.574Z,35.47
2022-12-25T21:02:42.839Z,34.17
2022-12-25T21:05:13.156Z,30.23
2022-12-25T21:07:40.068Z,30.40
2022-12-25T21:10:07.841Z,30.30
2022-12-25T21:12:35.072Z,31.95
2022-12-25T21:15:02.535Z,30.15
2022-12-25T21:17:29.538Z,33.90
2022-12-25T21:19:56.541Z,30.13
2022-12-25T21:22:26.780Z,32.40
2022-12-25T21:24:53.844Z,32.05
2022-12-25T21:27:20.931Z,28.92
2022-12-25T21:29:47.946Z,28.83
2022-12-25T21:32:33.196Z,29.35
2022-12-25T21:36:18.074Z,28.75
2022-12-25T21:39:09.097Z,29.15
2022-12-25T21:46:32.434Z,31.83
2022-12-25T21:49:00.927Z,28.60
2022-12-25T21:51:53.595Z,25.67
2022-12-25T21:54:23.784Z,32.85
2022-12-25T21:56:51.074Z,29.63
2022-12-25T22:02:20.970Z,35.17
2022-12-25T22:04:48.033Z,36.25
2022-12-25T22:07:17.953Z,35.78
2022-12-25T22:09:49.994Z,33.17
2022-12-25T22:12:37.732Z,32.83
2022-12-25T22:15:07.762Z,29.05
2022-12-25T22:18:01.426Z,35.40
2022-12-25T22:20:37.273Z,35.25
2022-12-25T22:23:04.945Z,34.63
2022-12-25T22:25:31.979Z,35.05
2022-12-25T22:27:59.885Z,32.17
2022-12-25T22:30:28.662Z,33.50
2022-12-25T22:32:56.317Z,29.75
2022-12-25T22:35:23.757Z,32.08
2022-12-25T22:37:50.920Z,33.80
2022-12-25T22:40:19.913Z,31.65
2022-12-25T22:42:47.470Z,29.38
2022-12-25T22:45:14.478Z,31.45
2022-12-25T22:47:42.022Z,33.45
2022-12-25T22:50:09.846Z,38.95
2022-12-25T22:52:38.284Z,31.83
2022-12-25T22:55:06.030Z,37.05
2022-12-25T22:57:33.098Z,34.42
2022-12-25T23:00:00.124Z,31.35
2022-12-25T23:02:27.374Z,36.10
2022-12-25T23:04:54.371Z,35.42
2022-12-25T23:07:21.297Z,34.47
2022-12-25T23:09:48.336Z,33.38
2022-12-25T23:12:33.707Z,36.15
2022-12-25T23:15:00.684Z,32.22
2022-12-25T23:17:46.136Z,31.30
2022-12-25T23:20:33.375Z,28.80
2022-12-25T23:23:19.708Z,28.27
2022-12-25T23:26:05.686Z,26.50
2022-12-25T23:28:51.596Z,28.75
2022-12-25T23:31:20.632Z,29.38
2022-12-25T23:33:47.626Z,26.98
2022-12-25T23:36:18.452Z,25.63
2022-12-25T23:38:47.551Z,29.90
2022-12-25T23:41:28.880Z,24.73
2022-12-25T23:43:55.814Z,29.75
2022-12-25T23:46:22.734Z,29.75
2022-12-25T23:48:49.571Z,26.80
2022-12-25T23:51:16.987Z,24.67
2022-12-25T23:53:43.798Z,28.98
2022-12-25T23:56:10.703Z,27.10
2022-12-25T23:58:37.893Z,23.48
